createdAt,value
2019-04-14T00:00:42.686Z,27.60
2019-04-14T00:03:23.758Z,23.15
2019-04-14T00:05:56.057Z,21.87
2019-04-14T00:08:26.608Z,21.97
2019-04-14T00:10:57.273Z,24.10
2019-04-14T00:13:28.523Z,28.05
2019-04-14T00:15:58.975Z,21.77
2019-04-14T00:18:29.415Z,24.72
2019-04-14T00:20:59.916Z,23.00
2019-04-14T00:23:32.638Z,30.23
2019-04-14T00:26:27.123Z,26.90
2019-04-14T00:28:58.348Z,28.35
2019-04-14T00:31:30.711Z,24.52
2019-04-14T00:34:02.894Z,28.30
2019-04-14T00:36:35.813Z,22.37
2019-04-14T00:39:20.511Z,27.93
2019-04-14T00:42:03.380Z,23.52
2019-04-14T00:47:31.215Z,21.90
2019-04-14T00:50:01.706Z,22.15
2019-04-14T00:52:34.084Z,24.50
2019-04-14T00:55:07.575Z,21.90
2019-04-14T00:57:37.829Z,23.20
2019-04-14T01:00:10.397Z,26.02
2019-04-14T01:02:40.758Z,25.45
2019-04-14T01:05:12.915Z,22.22
2019-04-14T01:10:14.981Z,26.20
2019-04-14T01:12:45.371Z,23.62
2019-04-14T01:15:15.815Z,25.40
2019-04-14T01:17:46.196Z,31.75
2019-04-14T01:20:16.697Z,24.40
2019-04-14T01:22:46.882Z,28.75
2019-04-14T01:25:17.161Z,21.48
2019-04-14T01:27:49.549Z,22.30
2019-04-14T01:32:50.290Z,24.07
2019-04-14T01:35:20.401Z,22.73
2019-04-14T01:37:51.067Z,23.80
2019-04-14T01:40:20.936Z,24.87
2019-04-14T01:42:51.326Z,25.95
2019-04-14T01:45:21.686Z,23.75
2019-04-14T01:47:51.791Z,24.65
2019-04-14T01:50:23.507Z,27.98
2019-04-14T01:53:05.415Z,24.80
2019-04-14T01:55:41.429Z,23.32
2019-04-14T01:58:14.388Z,26.73
2019-04-14T02:01:04.771Z,21.93
2019-04-14T02:03:35.277Z,35.78
2019-04-14T02:06:05.393Z,28.00
2019-04-14T02:08:35.321Z,27.10
2019-04-14T02:11:05.647Z,24.23
2019-04-14T02:13:35.797Z,26.10
2019-04-14T02:16:21.031Z,24.70
2019-04-14T02:18:38.517Z,26.82
2019-04-14T02:21:08.720Z,28.12
2019-04-14T02:23:38.863Z,24.32
2019-04-14T02:26:09.217Z,25.37
2019-04-14T02:28:41.751Z,26.42
2019-04-14T02:31:24.297Z,27.67
2019-04-14T02:34:07.980Z,27.20
2019-04-14T02:39:31.749Z,24.15
2019-04-14T02:44:27.081Z,26.33
2019-04-14T02:49:28.694Z,26.15
2019-04-14T02:51:58.327Z,29.77
2019-04-14T02:54:36.656Z,28.57
2019-04-14T02:57:01.336Z,27.93
2019-04-14T02:59:29.010Z,28.10
2019-04-14T03:02:18.102Z,26.52
2019-04-14T03:04:33.904Z,25.62
2019-04-14T03:07:12.144Z,28.50
2019-04-14T03:12:09.719Z,23.40
2019-04-14T03:14:47.830Z,24.05
2019-04-14T03:20:05.418Z,27.45
2019-04-14T03:22:45.919Z,21.75
2019-04-14T03:25:09.662Z,24.07
2019-04-14T03:27:54.447Z,23.87
2019-04-14T03:31:01.649Z,26.23
2019-04-14T03:36:04.888Z,26.57
2019-04-14T03:38:18.674Z,29.12
2019-04-14T03:40:42.926Z,32.85
2019-04-14T03:43:24.990Z,24.50
2019-04-14T03:50:45.462Z,25.62
2019-04-14T03:53:23.311Z,33.83
2019-04-14T03:55:55.410Z,26.17
2019-04-14T03:58:21.120Z,25.37
2019-04-14T04:00:51.562Z,21.45
2019-04-14T04:03:21.939Z,24.72
2019-04-14T04:05:52.291Z,22.98
2019-04-14T04:08:22.659Z,23.40
2019-04-14T04:10:55.438Z,22.55
2019-04-14T04:13:25.949Z,22.75
2019-04-14T04:15:58.367Z,26.12
2019-04-14T04:21:20.675Z,20.60
2019-04-14T04:23:53.321Z,22.45
2019-04-14T04:26:37.061Z,21.07
2019-04-14T04:29:09.125Z,20.32
2019-04-14T04:31:50.896Z,20.32
2019-04-14T04:34:25.249Z,25.02
2019-04-14T04:37:06.159Z,23.45
2019-04-14T04:39:38.655Z,20.08
2019-04-14T04:42:11.145Z,24.07
2019-04-14T04:44:42.155Z,18.05
2019-04-14T04:47:12.523Z,23.65
2019-04-14T04:49:42.708Z,19.25
2019-04-14T04:52:14.294Z,22.55
2019-04-14T04:54:45.013Z,19.42
2019-04-14T04:57:15.553Z,21.30
2019-04-14T04:59:45.777Z,24.77
2019-04-14T05:02:15.777Z,23.55
2019-04-14T05:04:46.253Z,21.37
2019-04-14T05:07:18.750Z,19.37
2019-04-14T05:09:57.719Z,19.98
2019-04-14T05:12:39.134Z,22.35
2019-04-14T05:15:11.839Z,20.48
2019-04-14T05:17:47.377Z,17.32
2019-04-14T05:20:18.577Z,21.12
2019-04-14T05:22:48.804Z,18.40
2019-04-14T05:25:19.102Z,17.95
2019-04-14T05:27:49.841Z,15.65
2019-04-14T05:30:20.017Z,15.05
2019-04-14T05:32:52.327Z,18.35
2019-04-14T05:35:22.768Z,17.25
2019-04-14T05:37:53.319Z,16.80
2019-04-14T05:40:23.663Z,17.20
2019-04-14T05:42:53.778Z,15.60
2019-04-14T05:45:24.120Z,14.93
2019-04-14T05:47:54.493Z,14.98
2019-04-14T05:50:24.899Z,18.05
2019-04-14T05:52:55.768Z,12.13
2019-04-14T05:55:26.334Z,17.12
2019-04-14T05:57:56.836Z,13.55
2019-04-14T06:00:27.800Z,8.45
2019-04-14T06:02:59.404Z,11.80
2019-04-14T06:05:29.928Z,14.73
2019-04-14T06:07:59.972Z,13.00
2019-04-14T06:10:30.222Z,12.90
2019-04-14T06:13:00.338Z,13.93
2019-04-14T06:15:30.259Z,16.30
2019-04-14T06:18:00.442Z,12.18
2019-04-14T06:20:30.319Z,12.05
2019-04-14T06:23:01.890Z,10.98
2019-04-14T06:25:31.776Z,13.72
2019-04-14T06:28:02.101Z,12.78
2019-04-14T06:30:39.765Z,13.22
2019-04-14T06:33:12.369Z,14.55
2019-04-14T06:35:47.041Z,13.38
2019-04-14T06:38:24.348Z,12.70
2019-04-14T06:40:56.013Z,12.68
2019-04-14T06:43:26.291Z,10.35
2019-04-14T06:45:56.409Z,12.88
2019-04-14T06:48:26.601Z,16.77
2019-04-14T06:50:56.888Z,12.82
2019-04-14T06:53:26.924Z,16.02
2019-04-14T06:55:56.813Z,14.63
2019-04-14T06:58:26.847Z,15.03
2019-04-14T07:01:01.200Z,12.43
2019-04-14T07:03:32.932Z,9.13
2019-04-14T07:06:08.515Z,12.33
2019-04-14T07:08:45.618Z,11.50
2019-04-14T07:11:22.440Z,14.30
2019-04-14T07:13:56.610Z,17.42
2019-04-14T07:16:32.137Z,18.07
2019-04-14T07:19:02.283Z,16.42
2019-04-14T07:21:36.932Z,14.38
2019-04-14T07:24:17.039Z,18.73
2019-04-14T07:26:50.245Z,19.25
2019-04-14T07:29:31.411Z,14.07
2019-04-14T07:32:14.900Z,17.42
2019-04-14T07:34:50.566Z,16.30
2019-04-14T07:37:38.219Z,18.25
2019-04-14T07:40:16.734Z,12.63
2019-04-14T07:42:48.551Z,17.40
2019-04-14T07:45:24.001Z,18.20
2019-04-14T07:47:58.644Z,17.85
2019-04-14T07:50:50.301Z,14.90
2019-04-14T07:53:23.508Z,12.85
2019-04-14T07:56:00.750Z,12.30
2019-04-14T07:58:40.005Z,14.25
2019-04-14T08:01:16.048Z,16.12
2019-04-14T08:04:07.098Z,11.15
2019-04-14T08:06:45.578Z,13.58
2019-04-14T08:09:24.964Z,13.50
2019-04-14T08:12:06.605Z,10.68
2019-04-14T08:14:39.480Z,16.77
2019-04-14T08:17:17.027Z,17.07
2019-04-14T08:19:47.365Z,18.05
2019-04-14T08:22:25.047Z,22.67
2019-04-14T08:24:54.951Z,20.85
2019-04-14T08:27:25.123Z,28.17
2019-04-14T08:30:05.533Z,22.10
2019-04-14T08:32:37.359Z,30.97
2019-04-14T08:35:09.446Z,24.30
2019-04-14T08:37:43.956Z,23.73
2019-04-14T08:40:16.781Z,13.28
2019-04-14T08:43:11.326Z,16.97
2019-04-14T08:45:56.079Z,21.68
2019-04-14T08:48:36.170Z,16.57
2019-04-14T08:51:18.762Z,20.43
2019-04-14T08:53:53.176Z,13.13
2019-04-14T08:56:30.562Z,11.75
2019-04-14T08:59:07.825Z,12.65
2019-04-14T09:01:45.543Z,10.32
2019-04-14T09:04:17.651Z,13.62
2019-04-14T09:07:12.877Z,12.47
2019-04-14T09:09:50.820Z,13.53
2019-04-14T09:12:52.418Z,16.15
2019-04-14T09:15:27.309Z,13.90
2019-04-14T09:17:57.781Z,11.35
2019-04-14T09:20:36.035Z,12.40
2019-04-14T09:23:12.827Z,22.35
2019-04-14T09:25:45.788Z,13.15
2019-04-14T09:28:31.192Z,9.85
2019-04-14T09:31:08.022Z,10.45
2019-04-14T09:33:47.074Z,12.43
2019-04-14T09:36:21.266Z,11.08
2019-04-14T09:39:03.445Z,11.90
2019-04-14T09:41:44.302Z,12.75
2019-04-14T09:44:14.773Z,11.93
2019-04-14T09:46:46.597Z,15.18
2019-04-14T09:51:50.560Z,11.60
2019-04-14T09:54:35.792Z,12.35
2019-04-14T09:57:09.617Z,15.65
2019-04-14T09:59:57.457Z,12.65
2019-04-14T10:02:30.622Z,11.73
2019-04-14T10:05:11.172Z,10.30
2019-04-14T10:07:41.461Z,10.53
2019-04-14T10:10:13.202Z,8.30
2019-04-14T10:13:08.697Z,8.68
2019-04-14T10:15:42.728Z,10.45
2019-04-14T10:18:35.506Z,12.40
2019-04-14T10:21:17.625Z,12.75
2019-04-14T10:26:34.790Z,10.32
2019-04-14T10:29:05.931Z,8.87
2019-04-14T10:31:36.251Z,18.37
2019-04-14T10:34:06.705Z,9.38
2019-04-14T10:36:39.522Z,10.90
2019-04-14T10:39:09.833Z,9.95
2019-04-14T10:41:40.013Z,9.20
2019-04-14T10:44:09.972Z,11.10
2019-04-14T10:46:40.075Z,9.18
2019-04-14T10:49:10.574Z,5.75
2019-04-14T10:51:40.554Z,9.43
2019-04-14T10:54:10.812Z,10.23
2019-04-14T10:56:40.918Z,10.82
2019-04-14T10:59:11.025Z,9.05
2019-04-14T11:01:40.987Z,7.28
2019-04-14T11:04:11.133Z,12.45
2019-04-14T11:06:46.711Z,13.18
2019-04-14T11:09:17.274Z,7.62
2019-04-14T11:11:47.488Z,10.63
2019-04-14T11:14:17.994Z,8.28
2019-04-14T11:16:49.373Z,22.48
2019-04-14T11:19:27.394Z,8.78
2019-04-14T11:21:58.282Z,14.83
2019-04-14T11:24:28.618Z,10.25
2019-04-14T11:26:58.795Z,8.83
2019-04-14T11:29:34.771Z,8.38
2019-04-14T11:32:15.361Z,8.33
2019-04-14T11:34:52.198Z,12.73
2019-04-14T11:37:31.867Z,7.33
2019-04-14T11:40:04.855Z,7.65
2019-04-14T11:42:34.696Z,5.30
2019-04-14T11:45:08.199Z,13.48
2019-04-14T11:47:44.441Z,12.80
2019-04-14T11:50:14.634Z,7.83
2019-04-14T11:52:45.045Z,9.35
2019-04-14T11:55:20.364Z,8.40
2019-04-14T11:58:21.723Z,9.45
2019-04-14T12:00:54.325Z,10.53
2019-04-14T12:03:40.998Z,7.40
2019-04-14T12:06:30.692Z,8.33
2019-04-14T12:09:08.006Z,8.58
2019-04-14T12:11:45.684Z,9.95
2019-04-14T12:14:18.649Z,6.85
2019-04-14T12:16:58.727Z,8.83
2019-04-14T12:19:37.905Z,9.43
2019-04-14T12:22:08.882Z,7.75
2019-04-14T12:24:57.348Z,13.15
2019-04-14T12:27:24.640Z,9.80
2019-04-14T12:29:56.693Z,8.08
2019-04-14T12:32:38.353Z,6.50
2019-04-14T12:35:23.898Z,7.12
2019-04-14T12:38:01.112Z,12.03
2019-04-14T12:40:33.627Z,5.75
2019-04-14T12:43:09.739Z,5.47
2019-04-14T12:45:57.179Z,7.75
2019-04-14T12:48:29.037Z,7.03
2019-04-14T12:53:39.042Z,11.95
2019-04-14T12:56:15.113Z,9.53
2019-04-14T12:59:04.663Z,10.53
2019-04-14T13:01:37.766Z,7.25
2019-04-14T13:04:10.354Z,7.70
2019-04-14T13:06:45.208Z,5.72
2019-04-14T13:09:15.150Z,16.65
2019-04-14T13:11:50.258Z,10.18
2019-04-14T13:14:25.691Z,7.00
2019-04-14T13:16:56.807Z,10.15
2019-04-14T13:19:26.995Z,9.83
2019-04-14T13:22:01.120Z,5.58
2019-04-14T13:24:36.876Z,6.58
2019-04-14T13:27:09.940Z,8.08
2019-04-14T13:29:40.917Z,5.65
2019-04-14T13:32:11.133Z,8.30
2019-04-14T13:34:42.172Z,6.40
2019-04-14T13:37:12.260Z,5.55
2019-04-14T13:39:43.363Z,5.55
2019-04-14T13:42:14.314Z,7.93
2019-04-14T13:44:44.768Z,15.63
2019-04-14T13:47:18.545Z,9.93
2019-04-14T13:49:49.277Z,4.55
2019-04-14T13:52:22.834Z,10.60
2019-04-14T13:54:52.753Z,12.95
2019-04-14T13:57:24.858Z,6.97
2019-04-14T13:59:58.314Z,5.12
2019-04-14T14:02:28.616Z,4.30
2019-04-14T14:05:01.642Z,4.75
2019-04-14T14:07:33.124Z,8.68
2019-04-14T14:10:03.548Z,10.10
2019-04-14T14:12:59.492Z,9.23
2019-04-14T14:15:40.680Z,8.53
2019-04-14T14:18:24.563Z,5.15
2019-04-14T14:20:56.580Z,14.00
2019-04-14T14:23:39.797Z,5.53
2019-04-14T14:26:14.228Z,8.55
2019-04-14T14:28:46.050Z,6.90
2019-04-14T14:31:22.618Z,12.45
2019-04-14T14:33:54.991Z,15.05
2019-04-14T14:36:28.208Z,8.08
2019-04-14T14:38:58.267Z,7.83
2019-04-14T14:41:29.527Z,8.23
2019-04-14T14:43:59.923Z,9.70
2019-04-14T14:46:47.035Z,7.55
2019-04-14T14:49:25.417Z,7.67
2019-04-14T14:52:00.318Z,10.60
2019-04-14T14:54:30.816Z,7.33
2019-04-14T14:57:13.065Z,5.83
2019-04-14T14:59:56.819Z,5.28
2019-04-14T15:02:28.473Z,7.15
2019-04-14T15:04:59.705Z,16.50
2019-04-14T15:07:32.512Z,14.03
2019-04-14T15:10:05.343Z,9.43
2019-04-14T15:12:41.500Z,17.23
2019-04-14T15:15:11.889Z,10.65
2019-04-14T15:17:42.566Z,15.78
2019-04-14T15:20:13.079Z,16.65
2019-04-14T15:25:21.840Z,8.80
2019-04-14T15:27:57.104Z,4.78
2019-04-14T15:30:30.325Z,7.90
2019-04-14T15:33:11.971Z,9.03
2019-04-14T15:35:46.958Z,9.40
2019-04-14T15:38:18.527Z,8.53
2019-04-14T15:40:49.565Z,7.70
2019-04-14T15:43:23.146Z,8.63
2019-04-14T15:45:56.291Z,7.90
2019-04-14T15:48:29.492Z,8.88
2019-04-14T15:51:05.309Z,6.85
2019-04-14T15:53:38.145Z,9.30
2019-04-14T15:56:13.640Z,10.13
2019-04-14T15:59:02.801Z,12.07
2019-04-14T16:02:04.605Z,7.80
2019-04-14T16:04:47.077Z,6.00
2019-04-14T16:07:27.419Z,6.42
2019-04-14T16:10:19.581Z,5.00
2019-04-14T16:13:00.123Z,5.95
2019-04-14T16:15:40.881Z,5.67
2019-04-14T16:18:13.086Z,4.60
2019-04-14T16:20:49.016Z,6.45
2019-04-14T16:23:19.503Z,5.53
2019-04-14T16:25:57.140Z,5.72
2019-04-14T16:28:34.911Z,15.70
2019-04-14T16:31:06.797Z,10.65
2019-04-14T16:33:55.084Z,11.50
2019-04-14T16:36:33.948Z,10.98
2019-04-14T16:39:09.693Z,9.98
2019-04-14T16:41:41.303Z,10.30
2019-04-14T16:47:01.814Z,15.03
2019-04-14T16:49:35.447Z,8.23
2019-04-14T16:52:13.423Z,13.58
2019-04-14T16:55:32.950Z,14.47
2019-04-14T16:58:22.776Z,9.93
2019-04-14T17:01:05.545Z,9.00
2019-04-14T17:03:35.988Z,10.48
2019-04-14T17:06:13.959Z,4.53
2019-04-14T17:08:44.253Z,7.40
2019-04-14T17:11:21.795Z,10.15
2019-04-14T17:13:54.698Z,12.40
2019-04-14T17:16:32.564Z,16.52
2019-04-14T17:19:31.450Z,14.93
2019-04-14T17:22:14.440Z,7.92
2019-04-14T17:25:04.678Z,11.97
2019-04-14T17:27:54.793Z,15.20
2019-04-14T17:30:32.380Z,10.78
2019-04-14T17:33:09.679Z,13.03
2019-04-14T17:35:41.307Z,10.82
2019-04-14T17:38:13.119Z,14.00
2019-04-14T17:41:06.597Z,12.73
2019-04-14T17:43:41.057Z,12.78
2019-04-14T17:46:34.866Z,14.80
2019-04-14T17:49:25.908Z,27.00
2019-04-14T17:52:16.538Z,13.90
2019-04-14T17:54:48.578Z,40.52
2019-04-14T17:57:37.761Z,22.55
2019-04-14T18:00:28.755Z,21.48
2019-04-14T18:03:03.086Z,21.45
2019-04-14T18:05:43.701Z,37.95
2019-04-14T18:08:20.917Z,26.07
2019-04-14T18:11:09.278Z,20.30
2019-04-14T18:13:57.014Z,21.93
2019-04-14T18:16:31.561Z,14.87
2019-04-14T18:19:09.001Z,15.65
2019-04-14T18:21:39.534Z,25.20
2019-04-14T18:24:12.892Z,15.45
2019-04-14T18:26:43.287Z,17.62
2019-04-14T18:29:24.935Z,26.00
2019-04-14T18:31:59.831Z,242.20
2019-04-14T18:34:37.091Z,281.60
2019-04-14T18:37:12.036Z,65.95
2019-04-14T18:39:52.502Z,37.05
2019-04-14T18:42:24.346Z,96.08
2019-04-14T18:45:12.392Z,445.75
2019-04-14T18:47:44.244Z,207.50
2019-04-14T18:50:21.942Z,146.75
2019-04-14T18:53:03.221Z,113.22
2019-04-14T18:55:49.879Z,91.67
2019-04-14T18:58:37.980Z,82.53
2019-04-14T19:01:21.169Z,66.75
2019-04-14T19:03:51.243Z,97.08
2019-04-14T19:06:21.485Z,42.33
2019-04-14T19:08:53.984Z,42.10
2019-04-14T19:11:25.442Z,35.48
2019-04-14T19:14:00.153Z,29.45
2019-04-14T19:16:39.803Z,22.35
2019-04-14T19:19:09.629Z,29.70
2019-04-14T19:21:42.733Z,23.38
2019-04-14T19:24:13.013Z,21.12
2019-04-14T19:26:43.392Z,41.30
2019-04-14T19:29:16.817Z,19.48
2019-04-14T19:31:50.223Z,25.05
2019-04-14T19:34:21.474Z,24.60
2019-04-14T19:36:51.839Z,25.00
2019-04-14T19:39:41.530Z,23.73
2019-04-14T19:42:12.216Z,21.93
2019-04-14T19:44:42.594Z,23.45
2019-04-14T19:47:19.189Z,24.92
2019-04-14T19:49:52.428Z,16.87
2019-04-14T19:52:22.940Z,16.35
2019-04-14T19:54:59.970Z,18.48
2019-04-14T19:57:30.717Z,16.95
2019-04-14T20:00:02.854Z,17.45
2019-04-14T20:02:37.499Z,184.57
2019-04-14T20:05:09.837Z,253.58
2019-04-14T20:07:39.894Z,216.48
2019-04-14T20:13:37.066Z,154.57
2019-04-14T20:16:12.376Z,140.90
2019-04-14T20:19:09.839Z,97.02
2019-04-14T20:21:48.674Z,33.85
2019-04-14T20:24:25.757Z,74.00
2019-04-14T20:26:57.518Z,38.53
2019-04-14T20:29:29.211Z,70.62
2019-04-14T20:32:01.075Z,36.53
2019-04-14T20:34:31.184Z,49.05
2019-04-14T20:37:02.346Z,210.30
2019-04-14T20:39:33.173Z,171.60
2019-04-14T20:42:03.333Z,29.98
2019-04-14T20:44:33.528Z,136.25
2019-04-14T20:47:05.648Z,35.80
2019-04-14T20:49:38.197Z,26.17
2019-04-14T20:52:08.486Z,31.10
2019-04-14T20:54:38.528Z,20.95
2019-04-14T20:57:08.732Z,20.65
2019-04-14T20:59:38.895Z,42.40
2019-04-14T21:02:27.195Z,31.17
2019-04-14T21:05:04.812Z,24.92
2019-04-14T21:07:54.241Z,22.80
2019-04-14T21:10:34.633Z,28.75
2019-04-14T21:13:12.198Z,16.70
2019-04-14T21:15:46.924Z,21.42
2019-04-14T21:18:24.887Z,15.90
2019-04-14T21:20:56.876Z,29.98
2019-04-14T21:23:34.405Z,37.05
2019-04-14T21:26:09.025Z,28.05
2019-04-14T21:28:56.894Z,18.57
2019-04-14T21:31:28.892Z,47.17
2019-04-14T21:34:02.317Z,29.05
2019-04-14T21:36:36.904Z,32.48
2019-04-14T21:39:12.863Z,18.27
2019-04-14T21:41:45.922Z,37.98
2019-04-14T21:44:16.184Z,26.50
2019-04-14T21:46:46.373Z,30.23
2019-04-14T21:49:16.640Z,29.27
2019-04-14T21:52:00.714Z,34.25
2019-04-14T21:54:30.945Z,22.07
2019-04-14T21:57:05.408Z,18.25
2019-04-14T21:59:53.406Z,16.60
2019-04-14T22:02:41.946Z,25.62
2019-04-14T22:05:15.046Z,20.92
2019-04-14T22:07:46.801Z,25.40
2019-04-14T22:10:24.696Z,20.45
2019-04-14T22:12:54.918Z,15.25
2019-04-14T22:15:25.337Z,19.65
2019-04-14T22:17:55.751Z,28.00
2019-04-14T22:20:25.927Z,30.45
2019-04-14T22:22:56.255Z,26.50
2019-04-14T22:25:26.303Z,26.85
2019-04-14T22:27:56.994Z,26.37
2019-04-14T22:30:27.575Z,31.17
2019-04-14T22:32:57.767Z,33.42
2019-04-14T22:35:28.063Z,30.08
2019-04-14T22:37:58.094Z,28.52
2019-04-14T22:40:28.806Z,24.87
2019-04-14T22:42:59.076Z,32.65
2019-04-14T22:45:29.590Z,33.15
2019-04-14T22:47:59.849Z,27.05
2019-04-14T22:50:29.840Z,27.22
2019-04-14T22:53:00.095Z,27.82
2019-04-14T22:55:30.670Z,28.38
2019-04-14T22:58:00.964Z,41.33
2019-04-14T23:00:44.685Z,27.62
2019-04-14T23:03:36.522Z,28.05
2019-04-14T23:06:14.279Z,31.07
2019-04-14T23:08:52.452Z,25.43
2019-04-14T23:11:24.311Z,26.27
2019-04-14T23:14:02.150Z,31.97
2019-04-14T23:16:51.065Z,25.48
2019-04-14T23:19:24.330Z,20.82
2019-04-14T23:22:07.921Z,20.08
2019-04-14T23:24:42.188Z,17.05
2019-04-14T23:27:12.632Z,23.80
2019-04-14T23:29:42.946Z,22.02
2019-04-14T23:32:13.734Z,24.92
2019-04-14T23:34:43.750Z,38.40
2019-04-14T23:37:14.345Z,32.33
2019-04-14T23:39:44.740Z,33.78
2019-04-14T23:42:14.765Z,34.95
2019-04-14T23:44:45.111Z,28.75
2019-04-14T23:47:15.268Z,29.85
2019-04-14T23:49:45.996Z,75.92
2019-04-14T23:52:16.426Z,42.53
2019-04-14T23:54:46.362Z,40.48
2019-04-14T23:57:16.501Z,26.93
2019-04-14T23:59:46.708Z,28.15
